sensor_id;sensor_type;location;lat;lon;timestamp;P1;durP1;ratioP1;P2;durP2;ratioP2
62927;SDS011;51070;52.236;-0.892;2022-11-18T00:00:55;1.90;;;1.10;;
62927;SDS011;51070;52.236;-0.892;2022-11-18T00:03:21;3.40;;;1.10;;
62927;SDS011;51070;52.236;-0.892;2022-11-18T00:05:53;4.30;;;1.60;;
62927;SDS011;51070;52.236;-0.892;2022-11-18T00:08:20;1.80;;;1.10;;
62927;SDS011;51070;52.236;-0.892;2022-11-18T00:10:47;2.40;;;1.30;;
62927;SDS011;51070;52.236;-0.892;2022-11-18T00:13:13;2.80;;;1.20;;
62927;SDS011;51070;52.236;-0.892;2022-11-18T00:18:27;3.70;;;1.50;;
62927;SDS011;51070;52.236;-0.892;2022-11-18T00:20:59;5.90;;;1.90;;
62927;SDS011;51070;52.236;-0.892;2022-11-18T00:23:27;3.10;;;1.30;;
62927;SDS011;51070;52.236;-0.892;2022-11-18T00:25:53;3.80;;;1.20;;
62927;SDS011;51070;52.236;-0.892;2022-11-18T00:28:19;2.70;;;1.20;;
62927;SDS011;51070;52.236;-0.892;2022-11-18T00:30:47;4.30;;;1.00;;
62927;SDS011;51070;52.236;-0.892;2022-11-18T00:33:12;3.60;;;1.60;;
62927;SDS011;51070;52.236;-0.892;2022-11-18T00:35:38;4.40;;;1.20;;
62927;SDS011;51070;52.236;-0.892;2022-11-18T00:38:03;1.80;;;1.20;;
62927;SDS011;51070;52.236;-0.892;2022-11-18T00:40:28;3.20;;;1.20;;
62927;SDS011;51070;52.236;-0.892;2022-11-18T00:42:54;4.20;;;1.40;;
62927;SDS011;51070;52.236;-0.892;2022-11-18T00:45:20;3.80;;;1.50;;
62927;SDS011;51070;52.236;-0.892;2022-11-18T00:47:46;2.90;;;1.20;;
62927;SDS011;51070;52.236;-0.892;2022-11-18T00:50:12;3.20;;;1.60;;
62927;SDS011;51070;52.236;-0.892;2022-11-18T00:52:37;5.50;;;1.90;;
62927;SDS011;51070;52.236;-0.892;2022-11-18T00:55:04;1.40;;;0.70;;
62927;SDS011;51070;52.236;-0.892;2022-11-18T00:57:30;3.90;;;1.20;;
62927;SDS011;51070;52.236;-0.892;2022-11-18T00:59:55;3.20;;;1.50;;
62927;SDS011;51070;52.236;-0.892;2022-11-18T01:02:20;7.60;;;1.60;;
62927;SDS011;51070;52.236;-0.892;2022-11-18T01:04:46;2.90;;;1.10;;
62927;SDS011;51070;52.236;-0.892;2022-11-18T01:07:11;2.20;;;1.10;;
62927;SDS011;51070;52.236;-0.892;2022-11-18T01:09:36;4.00;;;1.20;;
62927;SDS011;51070;52.236;-0.892;2022-11-18T01:12:05;4.90;;;1.20;;
62927;SDS011;51070;52.236;-0.892;2022-11-18T01:14:49;4.00;;;1.40;;
62927;SDS011;51070;52.236;-0.892;2022-11-18T01:17:14;2.30;;;1.00;;
62927;SDS011;51070;52.236;-0.892;2022-11-18T01:19:40;3.90;;;1.20;;
62927;SDS011;51070;52.236;-0.892;2022-11-18T01:22:05;2.50;;;1.20;;
62927;SDS011;51070;52.236;-0.892;2022-11-18T01:24:31;2.40;;;1.40;;
62927;SDS011;51070;52.236;-0.892;2022-11-18T01:26:58;2.40;;;1.10;;
62927;SDS011;51070;52.236;-0.892;2022-11-18T01:29:25;3.50;;;1.40;;
62927;SDS011;51070;52.236;-0.892;2022-11-18T01:31:51;4.90;;;1.50;;
62927;SDS011;51070;52.236;-0.892;2022-11-18T01:34:16;3.70;;;1.40;;
62927;SDS011;51070;52.236;-0.892;2022-11-18T01:36:42;3.40;;;1.20;;
62927;SDS011;51070;52.236;-0.892;2022-11-18T01:39:07;3.50;;;1.40;;
62927;SDS011;51070;52.236;-0.892;2022-11-18T01:41:33;3.80;;;1.30;;
62927;SDS011;51070;52.236;-0.892;2022-11-18T01:47:02;4.80;;;1.50;;
62927;SDS011;51070;52.236;-0.892;2022-11-18T01:49:27;2.90;;;1.40;;
62927;SDS011;51070;52.236;-0.892;2022-11-18T01:51:56;1.80;;;1.20;;
62927;SDS011;51070;52.236;-0.892;2022-11-18T01:54:30;4.50;;;1.20;;
62927;SDS011;51070;52.236;-0.892;2022-11-18T01:57:02;1.50;;;1.20;;
62927;SDS011;51070;52.236;-0.892;2022-11-18T01:59:35;4.50;;;2.10;;
62927;SDS011;51070;52.236;-0.892;2022-11-18T02:02:05;6.70;;;2.30;;
62927;SDS011;51070;52.236;-0.892;2022-11-18T02:04:34;4.30;;;2.00;;
62927;SDS011;51070;52.236;-0.892;2022-11-18T02:07:00;2.30;;;1.10;;
62927;SDS011;51070;52.236;-0.892;2022-11-18T02:09:26;2.80;;;1.20;;
62927;SDS011;51070;52.236;-0.892;2022-11-18T02:11:52;2.30;;;1.10;;
62927;SDS011;51070;52.236;-0.892;2022-11-18T02:14:25;2.90;;;1.30;;
62927;SDS011;51070;52.236;-0.892;2022-11-18T02:28:35;5.50;;;1.50;;
62927;SDS011;51070;52.236;-0.892;2022-11-18T02:34:05;2.80;;;1.30;;
62927;SDS011;51070;52.236;-0.892;2022-11-18T02:36:40;2.60;;;1.00;;
62927;SDS011;51070;52.236;-0.892;2022-11-18T02:39:19;5.00;;;1.30;;
62927;SDS011;51070;52.236;-0.892;2022-11-18T02:41:49;7.70;;;2.10;;
62927;SDS011;51070;52.236;-0.892;2022-11-18T02:44:21;1.80;;;0.90;;
62927;SDS011;51070;52.236;-0.892;2022-11-18T02:46:51;4.80;;;2.30;;
62927;SDS011;51070;52.236;-0.892;2022-11-18T02:49:26;1.70;;;1.00;;
62927;SDS011;51070;52.236;-0.892;2022-11-18T02:51:56;6.70;;;1.50;;
62927;SDS011;51070;52.236;-0.892;2022-11-18T02:54:23;4.60;;;1.20;;
62927;SDS011;51070;52.236;-0.892;2022-11-18T02:56:52;5.50;;;2.20;;
62927;SDS011;51070;52.236;-0.892;2022-11-18T02:59:19;5.40;;;1.20;;
62927;SDS011;51070;52.236;-0.892;2022-11-18T03:01:44;3.20;;;1.30;;
62927;SDS011;51070;52.236;-0.892;2022-11-18T03:04:13;4.20;;;1.20;;
62927;SDS011;51070;52.236;-0.892;2022-11-18T03:06:42;4.30;;;1.10;;
62927;SDS011;51070;52.236;-0.892;2022-11-18T03:09:28;3.10;;;1.40;;
62927;SDS011;51070;52.236;-0.892;2022-11-18T03:14:49;2.40;;;1.10;;
62927;SDS011;51070;52.236;-0.892;2022-11-18T03:22:54;4.80;;;1.80;;
62927;SDS011;51070;52.236;-0.892;2022-11-18T03:25:33;2.20;;;1.10;;
62927;SDS011;51070;52.236;-0.892;2022-11-18T03:28:08;2.00;;;1.20;;
62927;SDS011;51070;52.236;-0.892;2022-11-18T03:33:38;4.40;;;1.30;;
62927;SDS011;51070;52.236;-0.892;2022-11-18T03:36:09;1.80;;;1.00;;
62927;SDS011;51070;52.236;-0.892;2022-11-18T03:38:40;4.20;;;1.50;;
62927;SDS011;51070;52.236;-0.892;2022-11-18T03:41:11;4.30;;;1.40;;
62927;SDS011;51070;52.236;-0.892;2022-11-18T03:43:43;2.60;;;1.00;;
62927;SDS011;51070;52.236;-0.892;2022-11-18T03:47:00;2.40;;;0.80;;
62927;SDS011;51070;52.236;-0.892;2022-11-18T03:49:09;4.20;;;1.10;;
62927;SDS011;51070;52.236;-0.892;2022-11-18T03:51:41;1.40;;;1.00;;
62927;SDS011;51070;52.236;-0.892;2022-11-18T03:54:16;1.90;;;1.00;;
62927;SDS011;51070;52.236;-0.892;2022-11-18T03:56:58;1.00;;;0.70;;
62927;SDS011;51070;52.236;-0.892;2022-11-18T03:59:39;2.60;;;1.00;;
62927;SDS011;51070;52.236;-0.892;2022-11-18T04:02:17;3.40;;;1.40;;
62927;SDS011;51070;52.236;-0.892;2022-11-18T04:04:47;4.90;;;1.20;;
62927;SDS011;51070;52.236;-0.892;2022-11-18T04:10:10;2.40;;;1.10;;
62927;SDS011;51070;52.236;-0.892;2022-11-18T04:12:42;1.50;;;1.10;;
62927;SDS011;51070;52.236;-0.892;2022-11-18T04:15:13;2.80;;;1.10;;
62927;SDS011;51070;52.236;-0.892;2022-11-18T04:17:40;3.10;;;1.20;;
62927;SDS011;51070;52.236;-0.892;2022-11-18T04:20:25;3.30;;;0.90;;
62927;SDS011;51070;52.236;-0.892;2022-11-18T04:22:52;3.60;;;1.20;;
62927;SDS011;51070;52.236;-0.892;2022-11-18T04:25:21;1.20;;;0.80;;
62927;SDS011;51070;52.236;-0.892;2022-11-18T04:27:48;4.60;;;1.20;;
62927;SDS011;51070;52.236;-0.892;2022-11-18T04:30:14;2.10;;;1.00;;
62927;SDS011;51070;52.236;-0.892;2022-11-18T04:32:41;3.60;;;1.00;;
62927;SDS011;51070;52.236;-0.892;2022-11-18T04:35:06;5.10;;;1.00;;
62927;SDS011;51070;52.236;-0.892;2022-11-18T04:37:32;1.50;;;0.70;;
62927;SDS011;51070;52.236;-0.892;2022-11-18T04:39:57;1.50;;;0.80;;
62927;SDS011;51070;52.236;-0.892;2022-11-18T04:42:23;1.60;;;0.80;;
62927;SDS011;51070;52.236;-0.892;2022-11-18T04:44:48;3.00;;;1.00;;
62927;SDS011;51070;52.236;-0.892;2022-11-18T04:47:17;1.70;;;0.90;;
62927;SDS011;51070;52.236;-0.892;2022-11-18T04:49:42;5.90;;;1.10;;
62927;SDS011;51070;52.236;-0.892;2022-11-18T04:52:07;4.80;;;1.20;;
62927;SDS011;51070;52.236;-0.892;2022-11-18T04:54:33;2.90;;;1.00;;
62927;SDS011;51070;52.236;-0.892;2022-11-18T04:56:59;5.30;;;1.30;;
62927;SDS011;51070;52.236;-0.892;2022-11-18T04:59:28;4.90;;;1.50;;
62927;SDS011;51070;52.236;-0.892;2022-11-18T05:01:54;4.60;;;1.20;;
62927;SDS011;51070;52.236;-0.892;2022-11-18T05:04:24;3.00;;;1.00;;
62927;SDS011;51070;52.236;-0.892;2022-11-18T05:06:51;3.90;;;1.20;;
62927;SDS011;51070;52.236;-0.892;2022-11-18T05:09:17;2.60;;;1.10;;
62927;SDS011;51070;52.236;-0.892;2022-11-18T05:11:43;2.20;;;0.80;;
62927;SDS011;51070;52.236;-0.892;2022-11-18T05:14:28;3.80;;;1.10;;
62927;SDS011;51070;52.236;-0.892;2022-11-18T05:16:55;2.00;;;0.70;;
62927;SDS011;51070;52.236;-0.892;2022-11-18T05:19:21;2.90;;;1.00;;
62927;SDS011;51070;52.236;-0.892;2022-11-18T05:21:47;2.70;;;1.10;;
62927;SDS011;51070;52.236;-0.892;2022-11-18T05:24:13;3.40;;;1.10;;
62927;SDS011;51070;52.236;-0.892;2022-11-18T05:26:38;3.70;;;1.00;;
62927;SDS011;51070;52.236;-0.892;2022-11-18T05:29:04;4.50;;;1.50;;
62927;SDS011;51070;52.236;-0.892;2022-11-18T05:31:29;6.40;;;1.50;;
62927;SDS011;51070;52.236;-0.892;2022-11-18T05:33:55;5.70;;;1.10;;
62927;SDS011;51070;52.236;-0.892;2022-11-18T05:36:21;3.60;;;1.30;;
62927;SDS011;51070;52.236;-0.892;2022-11-18T05:38:47;3.00;;;0.90;;
62927;SDS011;51070;52.236;-0.892;2022-11-18T05:41:13;6.10;;;1.10;;
62927;SDS011;51070;52.236;-0.892;2022-11-18T05:44:02;3.20;;;1.10;;
62927;SDS011;51070;52.236;-0.892;2022-11-18T05:46:28;3.20;;;1.20;;
62927;SDS011;51070;52.236;-0.892;2022-11-18T05:48:57;3.80;;;1.20;;
62927;SDS011;51070;52.236;-0.892;2022-11-18T05:53:47;3.70;;;1.00;;
62927;SDS011;51070;52.236;-0.892;2022-11-18T05:56:19;2.50;;;1.10;;
62927;SDS011;51070;52.236;-0.892;2022-11-18T05:58:49;2.40;;;1.00;;
62927;SDS011;51070;52.236;-0.892;2022-11-18T06:01:15;3.50;;;1.10;;
62927;SDS011;51070;52.236;-0.892;2022-11-18T06:03:45;4.20;;;1.00;;
62927;SDS011;51070;52.236;-0.892;2022-11-18T06:06:10;6.70;;;1.30;;
62927;SDS011;51070;52.236;-0.892;2022-11-18T06:08:41;4.70;;;1.60;;
62927;SDS011;51070;52.236;-0.892;2022-11-18T06:11:13;2.90;;;1.30;;
62927;SDS011;51070;52.236;-0.892;2022-11-18T06:13:46;5.60;;;1.10;;
62927;SDS011;51070;52.236;-0.892;2022-11-18T06:16:32;3.20;;;1.00;;
62927;SDS011;51070;52.236;-0.892;2022-11-18T06:19:00;3.40;;;1.20;;
62927;SDS011;51070;52.236;-0.892;2022-11-18T06:21:26;3.30;;;1.00;;
62927;SDS011;51070;52.236;-0.892;2022-11-18T06:23:52;1.10;;;0.90;;
62927;SDS011;51070;52.236;-0.892;2022-11-18T06:26:17;3.00;;;1.50;;
62927;SDS011;51070;52.236;-0.892;2022-11-18T06:28:44;2.60;;;1.70;;
62927;SDS011;51070;52.236;-0.892;2022-11-18T06:31:11;5.50;;;1.30;;
62927;SDS011;51070;52.236;-0.892;2022-11-18T06:33:36;1.60;;;1.00;;
62927;SDS011;51070;52.236;-0.892;2022-11-18T06:36:02;5.50;;;1.10;;
62927;SDS011;51070;52.236;-0.892;2022-11-18T06:38:28;3.40;;;1.00;;
62927;SDS011;51070;52.236;-0.892;2022-11-18T06:40:57;5.00;;;1.20;;
62927;SDS011;51070;52.236;-0.892;2022-11-18T06:43:23;3.30;;;1.20;;
62927;SDS011;51070;52.236;-0.892;2022-11-18T06:46:06;1.90;;;0.80;;
62927;SDS011;51070;52.236;-0.892;2022-11-18T06:48:55;4.00;;;1.00;;
62927;SDS011;51070;52.236;-0.892;2022-11-18T06:51:20;2.40;;;1.10;;
62927;SDS011;51070;52.236;-0.892;2022-11-18T06:53:46;2.60;;;1.10;;
62927;SDS011;51070;52.236;-0.892;2022-11-18T06:56:13;4.90;;;1.30;;
62927;SDS011;51070;52.236;-0.892;2022-11-18T06:58:40;3.00;;;0.90;;
62927;SDS011;51070;52.236;-0.892;2022-11-18T07:03:43;3.50;;;1.00;;
62927;SDS011;51070;52.236;-0.892;2022-11-18T07:06:10;5.30;;;0.80;;
62927;SDS011;51070;52.236;-0.892;2022-11-18T07:08:38;2.90;;;1.10;;
62927;SDS011;51070;52.236;-0.892;2022-11-18T07:11:06;3.10;;;0.80;;
62927;SDS011;51070;52.236;-0.892;2022-11-18T07:13:34;3.40;;;1.40;;
62927;SDS011;51070;52.236;-0.892;2022-11-18T07:16:00;2.30;;;0.60;;
62927;SDS011;51070;52.236;-0.892;2022-11-18T07:18:32;2.40;;;0.80;;
62927;SDS011;51070;52.236;-0.892;2022-11-18T07:21:06;3.60;;;0.90;;
62927;SDS011;51070;52.236;-0.892;2022-11-18T07:23:33;5.40;;;1.20;;
62927;SDS011;51070;52.236;-0.892;2022-11-18T07:25:59;2.20;;;1.10;;
62927;SDS011;51070;52.236;-0.892;2022-11-18T07:28:25;2.30;;;0.80;;
62927;SDS011;51070;52.236;-0.892;2022-11-18T07:30:52;1.80;;;0.80;;
62927;SDS011;51070;52.236;-0.892;2022-11-18T07:33:17;2.30;;;0.90;;
62927;SDS011;51070;52.236;-0.892;2022-11-18T07:35:43;3.30;;;1.00;;
62927;SDS011;51070;52.236;-0.892;2022-11-18T07:38:08;5.80;;;1.10;;
62927;SDS011;51070;52.236;-0.892;2022-11-18T07:40:34;3.60;;;1.50;;
62927;SDS011;51070;52.236;-0.892;2022-11-18T07:43:00;2.20;;;1.10;;
62927;SDS011;51070;52.236;-0.892;2022-11-18T07:45:25;2.70;;;1.00;;
62927;SDS011;51070;52.236;-0.892;2022-11-18T07:47:50;2.00;;;1.00;;
62927;SDS011;51070;52.236;-0.892;2022-11-18T07:50:16;3.10;;;1.30;;
62927;SDS011;51070;52.236;-0.892;2022-11-18T07:52:42;1.60;;;0.90;;
62927;SDS011;51070;52.236;-0.892;2022-11-18T07:55:08;4.20;;;1.40;;
62927;SDS011;51070;52.236;-0.892;2022-11-18T07:57:34;2.80;;;0.80;;
62927;SDS011;51070;52.236;-0.892;2022-11-18T07:59:59;3.20;;;1.10;;
62927;SDS011;51070;52.236;-0.892;2022-11-18T08:02:24;2.40;;;0.90;;
62927;SDS011;51070;52.236;-0.892;2022-11-18T08:04:50;7.20;;;1.50;;
62927;SDS011;51070;52.236;-0.892;2022-11-18T08:07:15;2.90;;;1.10;;
62927;SDS011;51070;52.236;-0.892;2022-11-18T08:09:41;3.80;;;1.10;;
62927;SDS011;51070;52.236;-0.892;2022-11-18T08:12:06;2.40;;;1.10;;
62927;SDS011;51070;52.236;-0.892;2022-11-18T08:14:32;2.00;;;1.10;;
62927;SDS011;51070;52.236;-0.892;2022-11-18T08:16:57;5.20;;;1.50;;
62927;SDS011;51070;52.236;-0.892;2022-11-18T08:19:22;3.80;;;1.40;;
62927;SDS011;51070;52.236;-0.892;2022-11-18T08:21:48;2.80;;;1.10;;
62927;SDS011;51070;52.236;-0.892;2022-11-18T08:24:14;9.00;;;1.40;;
62927;SDS011;51070;52.236;-0.892;2022-11-18T08:26:39;3.90;;;1.00;;
62927;SDS011;51070;52.236;-0.892;2022-11-18T08:29:04;4.10;;;2.10;;
62927;SDS011;51070;52.236;-0.892;2022-11-18T08:31:30;3.30;;;1.10;;
62927;SDS011;51070;52.236;-0.892;2022-11-18T08:34:00;3.30;;;1.00;;
62927;SDS011;51070;52.236;-0.892;2022-11-18T08:36:29;3.70;;;0.90;;
62927;SDS011;51070;52.236;-0.892;2022-11-18T08:38:58;3.30;;;1.30;;
62927;SDS011;51070;52.236;-0.892;2022-11-18T08:41:35;2.70;;;1.10;;
62927;SDS011;51070;52.236;-0.892;2022-11-18T08:44:00;2.90;;;1.10;;
62927;SDS011;51070;52.236;-0.892;2022-11-18T08:46:26;3.70;;;1.30;;
62927;SDS011;51070;52.236;-0.892;2022-11-18T08:48:52;2.60;;;1.00;;
62927;SDS011;51070;52.236;-0.892;2022-11-18T08:51:18;2.90;;;1.10;;
62927;SDS011;51070;52.236;-0.892;2022-11-18T08:53:43;2.70;;;1.10;;
62927;SDS011;51070;52.236;-0.892;2022-11-18T08:56:13;2.70;;;0.90;;
62927;SDS011;51070;52.236;-0.892;2022-11-18T08:58:41;3.60;;;1.20;;
62927;SDS011;51070;52.236;-0.892;2022-11-18T09:01:07;3.10;;;1.00;;
62927;SDS011;51070;52.236;-0.892;2022-11-18T09:03:33;3.20;;;0.80;;
62927;SDS011;51070;52.236;-0.892;2022-11-18T09:08:43;2.20;;;0.80;;
62927;SDS011;51070;52.236;-0.892;2022-11-18T09:11:11;4.00;;;1.20;;
62927;SDS011;51070;52.236;-0.892;2022-11-18T09:13:38;2.50;;;1.00;;
62927;SDS011;51070;52.236;-0.892;2022-11-18T09:16:04;3.90;;;1.10;;
62927;SDS011;51070;52.236;-0.892;2022-11-18T09:18:30;5.70;;;1.50;;
62927;SDS011;51070;52.236;-0.892;2022-11-18T09:20:57;3.00;;;1.10;;
62927;SDS011;51070;52.236;-0.892;2022-11-18T09:23:24;1.30;;;0.70;;
62927;SDS011;51070;52.236;-0.892;2022-11-18T09:26:00;3.50;;;1.20;;
62927;SDS011;51070;52.236;-0.892;2022-11-18T09:28:26;3.60;;;1.10;;
62927;SDS011;51070;52.236;-0.892;2022-11-18T09:30:52;1.90;;;1.00;;
62927;SDS011;51070;52.236;-0.892;2022-11-18T09:33:18;6.20;;;1.30;;
62927;SDS011;51070;52.236;-0.892;2022-11-18T09:35:44;3.70;;;1.30;;
62927;SDS011;51070;52.236;-0.892;2022-11-18T09:38:09;3.50;;;1.30;;
62927;SDS011;51070;52.236;-0.892;2022-11-18T09:40:36;5.90;;;1.50;;
62927;SDS011;51070;52.236;-0.892;2022-11-18T09:49:11;6.30;;;2.50;;
62927;SDS011;51070;52.236;-0.892;2022-11-18T09:51:42;8.00;;;2.30;;
62927;SDS011;51070;52.236;-0.892;2022-11-18T09:54:11;4.80;;;2.20;;
62927;SDS011;51070;52.236;-0.892;2022-11-18T09:56:48;5.00;;;1.90;;
62927;SDS011;51070;52.236;-0.892;2022-11-18T09:59:16;8.90;;;1.70;;
62927;SDS011;51070;52.236;-0.892;2022-11-18T10:01:44;6.60;;;1.60;;
62927;SDS011;51070;52.236;-0.892;2022-11-18T10:04:12;2.10;;;1.30;;
62927;SDS011;51070;52.236;-0.892;2022-11-18T10:11:42;4.10;;;1.10;;
62927;SDS011;51070;52.236;-0.892;2022-11-18T10:14:54;2.70;;;0.90;;
62927;SDS011;51070;52.236;-0.892;2022-11-18T10:20:24;1.40;;;0.70;;
62927;SDS011;51070;52.236;-0.892;2022-11-18T10:25:36;2.00;;;0.80;;
62927;SDS011;51070;52.236;-0.892;2022-11-18T10:28:11;3.30;;;0.70;;
62927;SDS011;51070;52.236;-0.892;2022-11-18T10:30:48;1.40;;;0.90;;
62927;SDS011;51070;52.236;-0.892;2022-11-18T10:35:46;2.60;;;1.10;;
62927;SDS011;51070;52.236;-0.892;2022-11-18T10:40:46;3.50;;;0.80;;
62927;SDS011;51070;52.236;-0.892;2022-11-18T10:46:34;3.90;;;1.10;;
62927;SDS011;51070;52.236;-0.892;2022-11-18T10:51:38;2.30;;;1.00;;
62927;SDS011;51070;52.236;-0.892;2022-11-18T10:54:17;2.30;;;1.20;;
62927;SDS011;51070;52.236;-0.892;2022-11-18T10:57:00;3.90;;;0.90;;
62927;SDS011;51070;52.236;-0.892;2022-11-18T11:05:16;2.70;;;0.70;;
62927;SDS011;51070;52.236;-0.892;2022-11-18T11:07:45;2.80;;;0.90;;
62927;SDS011;51070;52.236;-0.892;2022-11-18T11:10:28;3.10;;;0.80;;
62927;SDS011;51070;52.236;-0.892;2022-11-18T11:12:55;2.60;;;0.80;;
62927;SDS011;51070;52.236;-0.892;2022-11-18T11:15:38;3.40;;;1.10;;
62927;SDS011;51070;52.236;-0.892;2022-11-18T11:18:29;2.00;;;1.20;;
62927;SDS011;51070;52.236;-0.892;2022-11-18T11:21:16;6.20;;;1.40;;
62927;SDS011;51070;52.236;-0.892;2022-11-18T11:23:44;4.30;;;1.20;;
62927;SDS011;51070;52.236;-0.892;2022-11-18T11:29:10;1.60;;;1.10;;
62927;SDS011;51070;52.236;-0.892;2022-11-18T11:34:39;1.70;;;0.90;;
62927;SDS011;51070;52.236;-0.892;2022-11-18T11:48:20;1.20;;;0.70;;
62927;SDS011;51070;52.236;-0.892;2022-11-18T11:51:00;2.10;;;0.90;;
62927;SDS011;51070;52.236;-0.892;2022-11-18T11:54:12;5.30;;;1.20;;
62927;SDS011;51070;52.236;-0.892;2022-11-18T11:56:48;2.90;;;0.80;;
62927;SDS011;51070;52.236;-0.892;2022-11-18T12:20:55;2.00;;;0.80;;
62927;SDS011;51070;52.236;-0.892;2022-11-18T12:23:22;2.00;;;0.90;;
62927;SDS011;51070;52.236;-0.892;2022-11-18T12:28:25;2.20;;;0.80;;
62927;SDS011;51070;52.236;-0.892;2022-11-18T12:31:25;2.40;;;0.80;;
62927;SDS011;51070;52.236;-0.892;2022-11-18T12:36:29;2.10;;;0.60;;
62927;SDS011;51070;52.236;-0.892;2022-11-18T12:38:56;4.00;;;0.80;;
62927;SDS011;51070;52.236;-0.892;2022-11-18T12:44:24;1.60;;;0.70;;
62927;SDS011;51070;52.236;-0.892;2022-11-18T12:47:01;0.50;;;0.50;;
62927;SDS011;51070;52.236;-0.892;2022-11-18T12:52:02;0.70;;;0.70;;
62927;SDS011;51070;52.236;-0.892;2022-11-18T12:57:17;3.40;;;0.80;;
62927;SDS011;51070;52.236;-0.892;2022-11-18T12:59:45;5.00;;;1.00;;
62927;SDS011;51070;52.236;-0.892;2022-11-18T13:04:36;2.20;;;1.30;;
62927;SDS011;51070;52.236;-0.892;2022-11-18T13:07:05;4.80;;;1.40;;
62927;SDS011;51070;52.236;-0.892;2022-11-18T13:09:55;4.30;;;1.50;;
62927;SDS011;51070;52.236;-0.892;2022-11-18T13:12:21;2.40;;;0.80;;
62927;SDS011;51070;52.236;-0.892;2022-11-18T13:14:50;2.80;;;0.90;;
62927;SDS011;51070;52.236;-0.892;2022-11-18T13:26:03;3.90;;;1.40;;
62927;SDS011;51070;52.236;-0.892;2022-11-18T13:28:39;1.20;;;1.10;;
62927;SDS011;51070;52.236;-0.892;2022-11-18T13:34:00;2.20;;;0.80;;
62927;SDS011;51070;52.236;-0.892;2022-11-18T13:36:27;4.60;;;1.10;;
62927;SDS011;51070;52.236;-0.892;2022-11-18T13:38:55;3.10;;;1.20;;
62927;SDS011;51070;52.236;-0.892;2022-11-18T13:41:20;5.30;;;1.30;;
62927;SDS011;51070;52.236;-0.892;2022-11-18T13:43:49;4.10;;;1.20;;
62927;SDS011;51070;52.236;-0.892;2022-11-18T13:46:17;4.30;;;1.70;;
62927;SDS011;51070;52.236;-0.892;2022-11-18T13:48:49;4.90;;;1.40;;
62927;SDS011;51070;52.236;-0.892;2022-11-18T13:51:20;3.00;;;1.20;;
62927;SDS011;51070;52.236;-0.892;2022-11-18T13:53:47;4.40;;;1.20;;
62927;SDS011;51070;52.236;-0.892;2022-11-18T13:56:19;4.90;;;1.10;;
62927;SDS011;51070;52.236;-0.892;2022-11-18T14:01:14;2.90;;;1.30;;
62927;SDS011;51070;52.236;-0.892;2022-11-18T14:03:51;3.70;;;1.30;;
62927;SDS011;51070;52.236;-0.892;2022-11-18T14:06:31;4.20;;;1.00;;
62927;SDS011;51070;52.236;-0.892;2022-11-18T14:11:41;2.30;;;0.70;;
62927;SDS011;51070;52.236;-0.892;2022-11-18T14:14:10;1.30;;;0.60;;
62927;SDS011;51070;52.236;-0.892;2022-11-18T14:16:38;6.00;;;1.10;;
62927;SDS011;51070;52.236;-0.892;2022-11-18T14:19:05;4.70;;;1.00;;
62927;SDS011;51070;52.236;-0.892;2022-11-18T14:21:35;3.50;;;1.10;;
62927;SDS011;51070;52.236;-0.892;2022-11-18T14:24:04;4.60;;;1.60;;
62927;SDS011;51070;52.236;-0.892;2022-11-18T14:26:31;3.40;;;1.10;;
62927;SDS011;51070;52.236;-0.892;2022-11-18T14:28:59;2.50;;;1.40;;
62927;SDS011;51070;52.236;-0.892;2022-11-18T14:31:44;8.20;;;1.70;;
62927;SDS011;51070;52.236;-0.892;2022-11-18T14:34:26;2.20;;;1.00;;
62927;SDS011;51070;52.236;-0.892;2022-11-18T14:36:52;1.90;;;1.10;;
62927;SDS011;51070;52.236;-0.892;2022-11-18T14:41:49;3.90;;;1.70;;
62927;SDS011;51070;52.236;-0.892;2022-11-18T14:44:19;2.50;;;1.10;;
62927;SDS011;51070;52.236;-0.892;2022-11-18T14:46:46;4.90;;;1.10;;
62927;SDS011;51070;52.236;-0.892;2022-11-18T14:49:17;2.80;;;0.90;;
62927;SDS011;51070;52.236;-0.892;2022-11-18T14:51:45;2.40;;;1.10;;
62927;SDS011;51070;52.236;-0.892;2022-11-18T14:54:16;5.70;;;2.30;;
62927;SDS011;51070;52.236;-0.892;2022-11-18T14:56:43;3.40;;;1.30;;
62927;SDS011;51070;52.236;-0.892;2022-11-18T15:01:38;3.00;;;1.00;;
62927;SDS011;51070;52.236;-0.892;2022-11-18T15:04:04;2.90;;;1.30;;
62927;SDS011;51070;52.236;-0.892;2022-11-18T15:06:30;1.40;;;1.00;;
62927;SDS011;51070;52.236;-0.892;2022-11-18T15:08:55;4.40;;;1.10;;
62927;SDS011;51070;52.236;-0.892;2022-11-18T15:11:20;2.60;;;1.00;;
62927;SDS011;51070;52.236;-0.892;2022-11-18T15:13:47;3.90;;;1.30;;
62927;SDS011;51070;52.236;-0.892;2022-11-18T15:16:13;3.50;;;1.40;;
62927;SDS011;51070;52.236;-0.892;2022-11-18T15:18:41;3.40;;;1.70;;
62927;SDS011;51070;52.236;-0.892;2022-11-18T15:21:08;2.40;;;0.80;;
62927;SDS011;51070;52.236;-0.892;2022-11-18T15:23:34;3.40;;;1.60;;
62927;SDS011;51070;52.236;-0.892;2022-11-18T15:26:00;2.00;;;1.40;;
62927;SDS011;51070;52.236;-0.892;2022-11-18T15:28:27;2.10;;;0.90;;
62927;SDS011;51070;52.236;-0.892;2022-11-18T15:30:53;3.70;;;1.50;;
62927;SDS011;51070;52.236;-0.892;2022-11-18T15:33:18;4.60;;;1.40;;
62927;SDS011;51070;52.236;-0.892;2022-11-18T15:35:44;5.80;;;2.60;;
62927;SDS011;51070;52.236;-0.892;2022-11-18T15:38:09;10.30;;;3.90;;
62927;SDS011;51070;52.236;-0.892;2022-11-18T15:40:36;13.60;;;7.30;;
62927;SDS011;51070;52.236;-0.892;2022-11-18T15:43:03;6.20;;;3.50;;
62927;SDS011;51070;52.236;-0.892;2022-11-18T15:45:28;7.30;;;3.50;;
62927;SDS011;51070;52.236;-0.892;2022-11-18T15:47:54;3.90;;;2.00;;
62927;SDS011;51070;52.236;-0.892;2022-11-18T15:50:19;9.20;;;2.80;;
62927;SDS011;51070;52.236;-0.892;2022-11-18T15:52:45;6.60;;;2.50;;
62927;SDS011;51070;52.236;-0.892;2022-11-18T15:55:10;5.80;;;2.80;;
62927;SDS011;51070;52.236;-0.892;2022-11-18T15:57:35;8.90;;;3.30;;
62927;SDS011;51070;52.236;-0.892;2022-11-18T16:00:01;5.50;;;2.30;;
62927;SDS011;51070;52.236;-0.892;2022-11-18T16:02:28;5.10;;;1.40;;
62927;SDS011;51070;52.236;-0.892;2022-11-18T16:04:54;4.00;;;1.40;;
62927;SDS011;51070;52.236;-0.892;2022-11-18T16:07:19;4.60;;;1.50;;
62927;SDS011;51070;52.236;-0.892;2022-11-18T16:09:45;3.90;;;1.50;;
62927;SDS011;51070;52.236;-0.892;2022-11-18T16:12:29;3.60;;;1.80;;
62927;SDS011;51070;52.236;-0.892;2022-11-18T16:15:15;3.10;;;1.60;;
62927;SDS011;51070;52.236;-0.892;2022-11-18T16:18:00;4.20;;;1.60;;
62927;SDS011;51070;52.236;-0.892;2022-11-18T16:20:27;3.10;;;1.10;;
62927;SDS011;51070;52.236;-0.892;2022-11-18T16:22:54;5.20;;;2.30;;
62927;SDS011;51070;52.236;-0.892;2022-11-18T16:25:20;6.20;;;2.10;;
62927;SDS011;51070;52.236;-0.892;2022-11-18T16:27:46;4.50;;;2.20;;
62927;SDS011;51070;52.236;-0.892;2022-11-18T16:30:12;7.00;;;2.80;;
62927;SDS011;51070;52.236;-0.892;2022-11-18T16:32:57;6.50;;;2.90;;
62927;SDS011;51070;52.236;-0.892;2022-11-18T16:35:22;9.10;;;3.40;;
62927;SDS011;51070;52.236;-0.892;2022-11-18T16:37:48;8.40;;;3.00;;
62927;SDS011;51070;52.236;-0.892;2022-11-18T16:40:14;7.30;;;2.70;;
62927;SDS011;51070;52.236;-0.892;2022-11-18T16:42:40;7.00;;;3.90;;
62927;SDS011;51070;52.236;-0.892;2022-11-18T16:45:06;8.20;;;4.20;;
62927;SDS011;51070;52.236;-0.892;2022-11-18T16:47:32;6.40;;;3.50;;
62927;SDS011;51070;52.236;-0.892;2022-11-18T16:49:57;8.20;;;3.90;;
62927;SDS011;51070;52.236;-0.892;2022-11-18T16:52:23;8.40;;;3.20;;
62927;SDS011;51070;52.236;-0.892;2022-11-18T16:54:48;6.10;;;3.40;;
62927;SDS011;51070;52.236;-0.892;2022-11-18T16:57:13;8.10;;;3.20;;
62927;SDS011;51070;52.236;-0.892;2022-11-18T16:59:39;7.20;;;3.90;;
62927;SDS011;51070;52.236;-0.892;2022-11-18T17:02:04;7.80;;;3.70;;
62927;SDS011;51070;52.236;-0.892;2022-11-18T17:04:31;10.40;;;4.20;;
62927;SDS011;51070;52.236;-0.892;2022-11-18T17:06:59;6.80;;;3.60;;
62927;SDS011;51070;52.236;-0.892;2022-11-18T17:09:24;9.30;;;3.20;;
62927;SDS011;51070;52.236;-0.892;2022-11-18T17:11:50;8.20;;;3.40;;
62927;SDS011;51070;52.236;-0.892;2022-11-18T17:14:17;5.60;;;3.10;;
62927;SDS011;51070;52.236;-0.892;2022-11-18T17:16:46;9.30;;;3.00;;